createdAt,value
2022-08-11T00:00:38.045Z,3.25
2022-08-11T00:05:56.138Z,3.33
2022-08-11T00:11:01.806Z,3.42
2022-08-11T00:16:05.227Z,2.97
2022-08-11T00:21:07.697Z,3.05
2022-08-11T00:26:09.989Z,3.45
2022-08-11T00:31:22.470Z,3.25
2022-08-11T00:36:29.037Z,3.60
2022-08-11T00:41:59.669Z,3.30
2022-08-11T00:47:13.027Z,3.10
2022-08-11T00:52:54.891Z,3.40
2022-08-11T00:58:11.651Z,3.20
2022-08-11T01:03:30.974Z,3.13
2022-08-11T01:09:09.602Z,3.30
2022-08-11T01:14:52.041Z,3.22
2022-08-11T01:20:47.541Z,3.42
2022-08-11T01:26:01.771Z,3.30
2022-08-11T01:31:23.742Z,3.35
2022-08-11T01:36:56.899Z,3.20
2022-08-11T01:42:20.248Z,3.03
2022-08-11T01:47:54.403Z,3.15
2022-08-11T01:53:30.147Z,3.70
2022-08-11T01:58:50.375Z,3.10
2022-08-11T02:04:08.651Z,3.60
2022-08-11T02:09:20.756Z,3.00
2022-08-11T02:14:34.603Z,3.28
2022-08-11T02:20:18.244Z,3.15
2022-08-11T02:25:43.114Z,3.20
2022-08-11T02:32:24.199Z,3.85
2022-08-11T02:37:32.652Z,3.50
2022-08-11T02:42:35.835Z,6.35
2022-08-11T02:48:34.094Z,5.93
2022-08-11T02:53:56.364Z,3.55
2022-08-11T02:59:26.015Z,5.00
2022-08-11T03:04:51.325Z,4.80
2022-08-11T03:10:11.410Z,4.15
2022-08-11T03:15:47.095Z,3.60
2022-08-11T03:21:52.443Z,3.78
2022-08-11T03:27:02.780Z,3.50
2022-08-11T03:32:07.235Z,3.97
2022-08-11T03:37:42.523Z,4.03
2022-08-11T03:43:02.880Z,5.25
2022-08-11T03:48:46.054Z,4.35
2022-08-11T03:54:25.174Z,3.72
2022-08-11T03:59:45.513Z,4.10
2022-08-11T04:05:07.427Z,4.45
2022-08-11T04:10:18.125Z,5.03
2022-08-11T04:16:12.542Z,4.47
2022-08-11T04:21:22.552Z,4.20
2022-08-11T04:27:02.054Z,3.60
2022-08-11T04:32:09.234Z,4.00
2022-08-11T04:37:34.638Z,4.32
2022-08-11T04:43:06.959Z,6.50
2022-08-11T04:48:39.486Z,3.50
2022-08-11T04:54:17.867Z,4.00
2022-08-11T05:00:31.639Z,4.15
2022-08-11T05:05:54.598Z,4.15
2022-08-11T05:11:26.836Z,4.40
2022-08-11T05:17:00.359Z,4.10
2022-08-11T05:22:21.887Z,4.10
2022-08-11T05:27:49.795Z,3.90
2022-08-11T05:33:31.844Z,4.50
2022-08-11T05:38:54.840Z,4.32
2022-08-11T05:44:20.812Z,4.07
2022-08-11T05:49:42.746Z,3.88
2022-08-11T05:55:06.299Z,4.03
2022-08-11T06:00:10.398Z,4.10
2022-08-11T06:05:14.137Z,4.00
2022-08-11T06:10:26.654Z,3.75
2022-08-11T06:15:30.223Z,3.47
2022-08-11T06:20:36.908Z,3.60
2022-08-11T06:25:38.674Z,3.80
2022-08-11T06:30:42.914Z,3.70
2022-08-11T06:36:04.772Z,3.70
2022-08-11T06:41:30.717Z,3.92
2022-08-11T06:46:38.133Z,3.60
2022-08-11T06:51:41.735Z,3.40
2022-08-11T07:02:46.664Z,4.28
2022-08-11T07:08:35.972Z,3.45
2022-08-11T07:13:57.497Z,3.17
2022-08-11T07:19:21.394Z,2.88
2022-08-11T07:25:01.279Z,3.05
2022-08-11T07:30:08.622Z,3.50
2022-08-11T07:35:13.694Z,3.42
2022-08-11T07:40:23.054Z,3.30
2022-08-11T07:45:43.659Z,3.22
2022-08-11T07:51:04.209Z,3.35
2022-08-11T07:56:06.334Z,3.35
2022-08-11T08:01:26.788Z,3.10
2022-08-11T08:06:47.879Z,2.72
2022-08-11T08:12:08.326Z,2.85
2022-08-11T08:17:28.793Z,2.88
2022-08-11T08:22:38.149Z,4.47
2022-08-11T08:27:43.611Z,5.18
2022-08-11T08:32:45.274Z,3.17
2022-08-11T08:37:47.808Z,2.70
2022-08-11T08:42:54.901Z,2.30
2022-08-11T08:48:02.331Z,2.28
2022-08-11T08:53:05.763Z,2.20
2022-08-11T08:58:07.802Z,2.20
2022-08-11T09:03:38.210Z,2.40
2022-08-11T09:08:32.881Z,2.75
2022-08-11T09:13:35.595Z,2.53
2022-08-11T09:18:37.924Z,2.17
2022-08-11T09:24:24.840Z,2.30
2022-08-11T09:29:20.870Z,2.10
2022-08-11T09:34:22.987Z,2.30
2022-08-11T09:39:43.661Z,2.30
2022-08-11T09:44:48.800Z,2.40
2022-08-11T09:49:53.275Z,2.40
2022-08-11T09:54:54.918Z,2.20
2022-08-11T10:00:12.423Z,2.28
2022-08-11T10:05:36.389Z,2.55
2022-08-11T10:10:39.339Z,2.60
2022-08-11T10:15:59.689Z,2.17
2022-08-11T10:21:34.834Z,2.10
2022-08-11T10:26:54.332Z,2.28
2022-08-11T10:32:22.970Z,2.85
2022-08-11T10:38:15.629Z,3.78
2022-08-11T10:43:03.174Z,2.08
2022-08-11T10:48:10.984Z,2.10
2022-08-11T10:53:36.529Z,2.45
2022-08-11T10:58:49.239Z,2.35
2022-08-11T11:04:01.551Z,1.70
2022-08-11T11:09:05.499Z,1.70
2022-08-11T11:14:27.325Z,1.83
2022-08-11T11:19:29.967Z,1.73
2022-08-11T11:24:45.694Z,2.03
2022-08-11T11:30:06.256Z,1.80
2022-08-11T11:35:26.661Z,1.70
2022-08-11T11:40:31.726Z,1.50
2022-08-11T11:45:33.735Z,1.70
2022-08-11T11:50:37.191Z,1.60
2022-08-11T11:55:39.109Z,1.40
2022-08-11T12:01:00.206Z,1.92
2022-08-11T12:06:02.917Z,1.55
2022-08-11T12:11:25.749Z,1.77
2022-08-11T12:16:33.723Z,1.25
2022-08-11T12:21:37.303Z,1.50
2022-08-11T12:27:16.112Z,1.20
2022-08-11T12:32:20.269Z,1.30
2022-08-11T12:37:30.175Z,1.23
2022-08-11T12:42:55.489Z,3.15
2022-08-11T12:49:01.173Z,1.40
2022-08-11T12:54:14.016Z,1.50
2022-08-11T12:59:34.485Z,1.30
2022-08-11T13:04:56.093Z,1.38
2022-08-11T13:09:57.940Z,1.60
2022-08-11T13:15:00.280Z,1.58
2022-08-11T13:20:03.093Z,1.50
2022-08-11T13:25:06.875Z,1.60
2022-08-11T13:30:27.627Z,1.70
2022-08-11T13:35:30.678Z,1.63
2022-08-11T13:40:54.644Z,1.67
2022-08-11T13:46:15.364Z,1.58
2022-08-11T13:51:35.428Z,1.75
2022-08-11T13:56:41.975Z,1.80
2022-08-11T14:02:19.887Z,1.45
2022-08-11T14:07:11.915Z,1.80
2022-08-11T14:12:35.331Z,1.88
2022-08-11T14:17:48.341Z,3.30
2022-08-11T14:22:52.063Z,1.63
2022-08-11T14:28:33.614Z,1.88
2022-08-11T14:33:20.276Z,1.75
2022-08-11T14:38:22.326Z,1.75
2022-08-11T14:44:14.276Z,1.60
2022-08-11T14:49:05.474Z,1.90
2022-08-11T14:54:26.859Z,1.67
2022-08-11T14:59:29.970Z,1.60
2022-08-11T15:04:35.769Z,2.00
2022-08-11T15:10:09.695Z,1.88
2022-08-11T15:15:26.617Z,2.13
2022-08-11T15:20:58.370Z,1.85
2022-08-11T15:26:46.130Z,1.80
2022-08-11T15:32:06.638Z,1.83
2022-08-11T15:37:29.557Z,1.73
2022-08-11T15:42:50.513Z,3.58
2022-08-11T15:47:58.461Z,1.77
2022-08-11T15:53:20.295Z,1.70
2022-08-11T15:58:42.952Z,1.90
2022-08-11T16:04:12.508Z,2.22
2022-08-11T16:09:18.364Z,1.90
2022-08-11T16:14:41.365Z,1.80
2022-08-11T16:19:44.403Z,2.00
2022-08-11T16:27:01.790Z,1.83
2022-08-11T16:30:09.087Z,1.90
2022-08-11T16:35:33.671Z,2.17
2022-08-11T16:40:35.691Z,2.17
2022-08-11T16:45:57.146Z,1.92
2022-08-11T16:51:00.920Z,2.17
2022-08-11T16:56:04.162Z,1.83
2022-08-11T17:01:05.886Z,1.75
2022-08-11T17:06:26.393Z,1.60
2022-08-11T17:11:48.100Z,1.95
2022-08-11T17:16:51.376Z,1.80
2022-08-11T17:22:12.216Z,1.85
2022-08-11T17:27:16.626Z,2.08
2022-08-11T17:32:57.009Z,1.70
2022-08-11T17:38:03.995Z,2.13
2022-08-11T17:43:27.485Z,2.25
2022-08-11T17:48:30.900Z,2.22
2022-08-11T17:54:10.157Z,1.75
2022-08-11T17:59:40.847Z,1.65
2022-08-11T18:04:52.217Z,1.73
2022-08-11T18:10:12.550Z,1.80
2022-08-11T18:15:32.789Z,2.70
2022-08-11T18:20:53.619Z,1.75
2022-08-11T18:26:18.856Z,1.70
2022-08-11T18:31:39.691Z,2.00
2022-08-11T18:37:08.344Z,2.25
2022-08-11T18:42:34.687Z,2.08
2022-08-11T18:47:56.510Z,3.75
2022-08-11T18:53:18.924Z,2.38
2022-08-11T18:58:46.286Z,1.85
2022-08-11T19:04:11.055Z,1.50
2022-08-11T19:09:36.207Z,1.65
2022-08-11T19:14:56.626Z,1.60
2022-08-11T19:20:17.777Z,1.83
2022-08-11T19:25:38.585Z,1.80
2022-08-11T19:30:59.617Z,1.65
2022-08-11T19:36:19.723Z,2.00
2022-08-11T19:41:56.675Z,2.25
2022-08-11T19:47:19.341Z,2.10
2022-08-11T19:52:40.133Z,1.80
2022-08-11T19:58:01.523Z,3.38
2022-08-11T20:03:24.030Z,1.85
2022-08-11T20:08:44.775Z,1.52
2022-08-11T20:14:05.275Z,2.03
2022-08-11T20:19:56.416Z,2.10
2022-08-11T20:25:07.027Z,2.20
2022-08-11T20:30:27.463Z,1.80
2022-08-11T20:35:47.974Z,1.80
2022-08-11T20:41:08.156Z,2.20
2022-08-11T20:46:29.232Z,2.28
2022-08-11T20:51:50.844Z,2.35
2022-08-11T20:57:15.285Z,2.10
2022-08-11T21:02:37.637Z,2.35
2022-08-11T21:08:00.365Z,4.57
2022-08-11T21:13:25.318Z,2.15
2022-08-11T21:18:48.439Z,2.70
2022-08-11T21:24:10.228Z,2.30
2022-08-11T21:29:31.702Z,2.78
2022-08-11T21:34:52.494Z,2.75
2022-08-11T21:40:17.121Z,2.65
2022-08-11T21:45:38.067Z,3.20
2022-08-11T21:50:58.041Z,2.50
2022-08-11T21:56:19.534Z,2.40
2022-08-11T22:01:40.577Z,2.20
2022-08-11T22:07:01.960Z,3.00
2022-08-11T22:12:33.496Z,2.47
2022-08-11T22:17:58.037Z,4.45
2022-08-11T22:23:19.644Z,2.30
2022-08-11T22:28:41.675Z,2.72
2022-08-11T22:34:03.296Z,2.50
2022-08-11T22:39:25.208Z,2.22
2022-08-11T22:44:45.487Z,2.50
2022-08-11T22:50:10.050Z,2.10
2022-08-11T22:55:31.123Z,2.30
2022-08-11T23:00:51.706Z,2.17
2022-08-11T23:06:11.984Z,2.40
2022-08-11T23:12:06.341Z,2.40
2022-08-11T23:17:14.550Z,2.50
2022-08-11T23:22:43.800Z,2.63
2022-08-11T23:28:10.102Z,2.20
2022-08-11T23:33:30.912Z,2.22
2022-08-11T23:38:51.529Z,2.30
2022-08-11T23:44:12.068Z,2.20
2022-08-11T23:49:32.589Z,2.00
2022-08-11T23:54:53.760Z,2.08
